sensor_id;sensor_type;location;lat;lon;timestamp;temperature;humidity
64501;DHT22;50874;24.150;-110.320;2022-11-21T00:00:41;23.50;99.90
64501;DHT22;50874;24.150;-110.320;2022-11-21T00:03:09;23.60;99.90
64501;DHT22;50874;24.150;-110.320;2022-11-21T00:05:41;23.60;99.90
64501;DHT22;50874;24.150;-110.320;2022-11-21T00:08:09;23.50;99.90
64501;DHT22;50874;24.150;-110.320;2022-11-21T00:10:36;23.40;99.90
64501;DHT22;50874;24.150;-110.320;2022-11-21T00:13:04;23.30;99.90
64501;DHT22;50874;24.150;-110.320;2022-11-21T00:15:30;23.30;99.90
64501;DHT22;50874;24.150;-110.320;2022-11-21T00:17:57;23.20;99.90
64501;DHT22;50874;24.150;-110.320;2022-11-21T00:20:23;23.20;99.90
64501;DHT22;50874;24.150;-110.320;2022-11-21T00:22:50;23.20;99.90
64501;DHT22;50874;24.150;-110.320;2022-11-21T00:25:16;23.00;99.90
64501;DHT22;50874;24.150;-110.320;2022-11-21T00:27:43;23.00;99.90
64501;DHT22;50874;24.150;-110.320;2022-11-21T00:30:10;22.80;99.90
64501;DHT22;50874;24.150;-110.320;2022-11-21T00:32:37;22.80;99.90
64501;DHT22;50874;24.150;-110.320;2022-11-21T00:35:05;22.80;99.90
64501;DHT22;50874;24.150;-110.320;2022-11-21T00:37:32;22.70;99.90
64501;DHT22;50874;24.150;-110.320;2022-11-21T00:39:58;22.70;99.90
64501;DHT22;50874;24.150;-110.320;2022-11-21T00:42:25;22.70;99.90
64501;DHT22;50874;24.150;-110.320;2022-11-21T00:44:52;22.70;99.90
64501;DHT22;50874;24.150;-110.320;2022-11-21T00:47:18;22.50;99.90
64501;DHT22;50874;24.150;-110.320;2022-11-21T00:49:45;22.50;99.90
64501;DHT22;50874;24.150;-110.320;2022-11-21T00:52:11;22.50;99.90
64501;DHT22;50874;24.150;-110.320;2022-11-21T00:54:37;22.50;99.90
64501;DHT22;50874;24.150;-110.320;2022-11-21T00:57:04;22.40;99.90
64501;DHT22;50874;24.150;-110.320;2022-11-21T00:59:30;22.30;99.90
64501;DHT22;50874;24.150;-110.320;2022-11-21T01:01:57;22.30;99.90
64501;DHT22;50874;24.150;-110.320;2022-11-21T01:04:23;22.30;99.90
64501;DHT22;50874;24.150;-110.320;2022-11-21T01:06:49;22.20;99.90
64501;DHT22;50874;24.150;-110.320;2022-11-21T01:09:16;22.20;99.90
64501;DHT22;50874;24.150;-110.320;2022-11-21T01:11:42;22.20;99.90
64501;DHT22;50874;24.150;-110.320;2022-11-21T01:14:09;22.20;99.90
64501;DHT22;50874;24.150;-110.320;2022-11-21T01:16:35;22.10;99.90
64501;DHT22;50874;24.150;-110.320;2022-11-21T01:19:02;22.10;99.90
64501;DHT22;50874;24.150;-110.320;2022-11-21T01:21:30;22.10;99.90
64501;DHT22;50874;24.150;-110.320;2022-11-21T01:23:59;22.10;99.90
64501;DHT22;50874;24.150;-110.320;2022-11-21T01:26:28;22.00;99.90
64501;DHT22;50874;24.150;-110.320;2022-11-21T01:28:56;22.00;99.90
64501;DHT22;50874;24.150;-110.320;2022-11-21T01:31:27;22.00;99.90
64501;DHT22;50874;24.150;-110.320;2022-11-21T01:33:56;22.00;99.90
64501;DHT22;50874;24.150;-110.320;2022-11-21T01:36:27;22.00;99.90
64501;DHT22;50874;24.150;-110.320;2022-11-21T01:38:57;22.00;99.90
64501;DHT22;50874;24.150;-110.320;2022-11-21T01:41:35;22.00;99.90
64501;DHT22;50874;24.150;-110.320;2022-11-21T01:44:08;21.90;99.90
64501;DHT22;50874;24.150;-110.320;2022-11-21T01:46:35;21.90;99.90
64501;DHT22;50874;24.150;-110.320;2022-11-21T01:49:26;21.90;99.90
64501;DHT22;50874;24.150;-110.320;2022-11-21T01:59:51;21.80;99.90
64501;DHT22;50874;24.150;-110.320;2022-11-21T02:02:20;21.90;99.90
64501;DHT22;50874;24.150;-110.320;2022-11-21T02:04:48;21.90;99.90
64501;DHT22;50874;24.150;-110.320;2022-11-21T02:07:17;21.90;99.90
64501;DHT22;50874;24.150;-110.320;2022-11-21T02:09:50;21.90;99.90
64501;DHT22;50874;24.150;-110.320;2022-11-21T02:12:27;21.80;99.90
64501;DHT22;50874;24.150;-110.320;2022-11-21T02:14:56;21.90;99.90
64501;DHT22;50874;24.150;-110.320;2022-11-21T02:17:25;21.80;99.90
64501;DHT22;50874;24.150;-110.320;2022-11-21T02:25:12;21.80;99.90
64501;DHT22;50874;24.150;-110.320;2022-11-21T02:27:39;21.80;99.90
64501;DHT22;50874;24.150;-110.320;2022-11-21T02:30:08;21.80;99.90
64501;DHT22;50874;24.150;-110.320;2022-11-21T02:32:40;21.80;99.90
64501;DHT22;50874;24.150;-110.320;2022-11-21T02:35:08;21.80;99.90
64501;DHT22;50874;24.150;-110.320;2022-11-21T02:37:35;21.80;99.90
64501;DHT22;50874;24.150;-110.320;2022-11-21T02:40:10;21.80;99.90
64501;DHT22;50874;24.150;-110.320;2022-11-21T02:45:38;21.70;99.90
64501;DHT22;50874;24.150;-110.320;2022-11-21T02:48:05;21.70;99.90
64501;DHT22;50874;24.150;-110.320;2022-11-21T02:50:37;21.70;99.90
64501;DHT22;50874;24.150;-110.320;2022-11-21T02:53:05;21.70;99.90
64501;DHT22;50874;24.150;-110.320;2022-11-21T02:55:32;21.70;99.90
64501;DHT22;50874;24.150;-110.320;2022-11-21T02:57:59;21.70;99.90
64501;DHT22;50874;24.150;-110.320;2022-11-21T03:00:25;21.70;99.90
64501;DHT22;50874;24.150;-110.320;2022-11-21T03:02:52;21.60;99.90
64501;DHT22;50874;24.150;-110.320;2022-11-21T03:05:20;21.60;99.90
64501;DHT22;50874;24.150;-110.320;2022-11-21T03:07:46;21.60;99.90
64501;DHT22;50874;24.150;-110.320;2022-11-21T03:10:13;21.60;99.90
64501;DHT22;50874;24.150;-110.320;2022-11-21T03:12:41;21.60;99.90
64501;DHT22;50874;24.150;-110.320;2022-11-21T03:15:11;21.60;99.90
64501;DHT22;50874;24.150;-110.320;2022-11-21T03:17:38;21.50;99.90
64501;DHT22;50874;24.150;-110.320;2022-11-21T03:20:05;21.50;99.90
64501;DHT22;50874;24.150;-110.320;2022-11-21T03:22:32;21.50;99.90
64501;DHT22;50874;24.150;-110.320;2022-11-21T03:24:59;21.50;99.90
64501;DHT22;50874;24.150;-110.320;2022-11-21T03:27:25;21.50;99.90
64501;DHT22;50874;24.150;-110.320;2022-11-21T03:29:52;21.40;99.90
64501;DHT22;50874;24.150;-110.320;2022-11-21T03:32:19;21.40;99.90
64501;DHT22;50874;24.150;-110.320;2022-11-21T03:34:45;21.40;99.90
64501;DHT22;50874;24.150;-110.320;2022-11-21T03:37:11;21.40;99.90
64501;DHT22;50874;24.150;-110.320;2022-11-21T03:39:38;21.40;99.90
64501;DHT22;50874;24.150;-110.320;2022-11-21T03:42:04;21.40;99.90
64501;DHT22;50874;24.150;-110.320;2022-11-21T03:44:31;21.40;99.90
64501;DHT22;50874;24.150;-110.320;2022-11-21T03:46:57;21.40;99.90
64501;DHT22;50874;24.150;-110.320;2022-11-21T03:49:23;21.40;99.90
64501;DHT22;50874;24.150;-110.320;2022-11-21T03:51:50;21.40;99.90
64501;DHT22;50874;24.150;-110.320;2022-11-21T03:54:16;21.40;99.90
64501;DHT22;50874;24.150;-110.320;2022-11-21T03:56:43;21.40;99.90
64501;DHT22;50874;24.150;-110.320;2022-11-21T03:59:09;21.30;99.90
64501;DHT22;50874;24.150;-110.320;2022-11-21T04:01:36;21.40;99.90
64501;DHT22;50874;24.150;-110.320;2022-11-21T04:04:02;21.30;99.90
64501;DHT22;50874;24.150;-110.320;2022-11-21T04:06:29;21.30;99.90
64501;DHT22;50874;24.150;-110.320;2022-11-21T04:08:56;21.30;99.90
64501;DHT22;50874;24.150;-110.320;2022-11-21T04:11:23;21.40;99.90
64501;DHT22;50874;24.150;-110.320;2022-11-21T04:13:50;21.30;99.90
64501;DHT22;50874;24.150;-110.320;2022-11-21T04:16:17;21.30;99.90
64501;DHT22;50874;24.150;-110.320;2022-11-21T04:18:44;21.40;99.90
64501;DHT22;50874;24.150;-110.320;2022-11-21T04:21:10;21.30;99.90
64501;DHT22;50874;24.150;-110.320;2022-11-21T04:23:37;21.30;99.90
64501;DHT22;50874;24.150;-110.320;2022-11-21T04:26:03;21.30;99.90
64501;DHT22;50874;24.150;-110.320;2022-11-21T04:28:30;21.30;99.90
64501;DHT22;50874;24.150;-110.320;2022-11-21T04:31:04;21.20;99.90
64501;DHT22;50874;24.150;-110.320;2022-11-21T04:33:31;21.20;99.90
64501;DHT22;50874;24.150;-110.320;2022-11-21T04:35:58;21.20;99.90
64501;DHT22;50874;24.150;-110.320;2022-11-21T04:38:24;21.20;99.90
64501;DHT22;50874;24.150;-110.320;2022-11-21T04:40:51;21.20;99.90
64501;DHT22;50874;24.150;-110.320;2022-11-21T04:43:17;21.10;99.90
64501;DHT22;50874;24.150;-110.320;2022-11-21T04:45:44;21.10;99.90
64501;DHT22;50874;24.150;-110.320;2022-11-21T04:48:11;21.10;99.90
64501;DHT22;50874;24.150;-110.320;2022-11-21T04:50:37;21.20;99.90
64501;DHT22;50874;24.150;-110.320;2022-11-21T04:53:04;21.10;99.90
64501;DHT22;50874;24.150;-110.320;2022-11-21T04:55:31;21.10;99.90
64501;DHT22;50874;24.150;-110.320;2022-11-21T04:57:58;21.10;99.90
64501;DHT22;50874;24.150;-110.320;2022-11-21T05:00:25;21.00;99.90
64501;DHT22;50874;24.150;-110.320;2022-11-21T05:02:51;20.90;99.90
64501;DHT22;50874;24.150;-110.320;2022-11-21T05:05:18;20.90;99.90
64501;DHT22;50874;24.150;-110.320;2022-11-21T05:07:45;20.80;99.90
64501;DHT22;50874;24.150;-110.320;2022-11-21T05:10:11;20.80;99.90
64501;DHT22;50874;24.150;-110.320;2022-11-21T05:12:38;20.70;99.90
64501;DHT22;50874;24.150;-110.320;2022-11-21T05:15:22;20.60;99.90
64501;DHT22;50874;24.150;-110.320;2022-11-21T05:17:49;20.40;99.90
64501;DHT22;50874;24.150;-110.320;2022-11-21T05:20:15;20.40;99.90
64501;DHT22;50874;24.150;-110.320;2022-11-21T05:22:43;20.30;99.90
64501;DHT22;50874;24.150;-110.320;2022-11-21T05:25:14;20.20;99.90
64501;DHT22;50874;24.150;-110.320;2022-11-21T05:27:41;20.20;99.90
64501;DHT22;50874;24.150;-110.320;2022-11-21T05:30:08;20.20;99.90
64501;DHT22;50874;24.150;-110.320;2022-11-21T05:32:35;20.10;99.90
64501;DHT22;50874;24.150;-110.320;2022-11-21T05:35:01;20.10;99.90
64501;DHT22;50874;24.150;-110.320;2022-11-21T05:37:27;20.10;99.90
64501;DHT22;50874;24.150;-110.320;2022-11-21T05:39:54;20.00;99.90
64501;DHT22;50874;24.150;-110.320;2022-11-21T05:42:20;19.90;99.90
64501;DHT22;50874;24.150;-110.320;2022-11-21T05:45:07;19.90;99.90
64501;DHT22;50874;24.150;-110.320;2022-11-21T05:47:34;19.80;99.90
64501;DHT22;50874;24.150;-110.320;2022-11-21T05:50:00;19.70;99.90
64501;DHT22;50874;24.150;-110.320;2022-11-21T05:52:27;19.50;99.90
64501;DHT22;50874;24.150;-110.320;2022-11-21T05:54:53;19.40;99.90
64501;DHT22;50874;24.150;-110.320;2022-11-21T05:57:20;19.40;99.90
64501;DHT22;50874;24.150;-110.320;2022-11-21T05:59:46;19.30;99.90
64501;DHT22;50874;24.150;-110.320;2022-11-21T06:02:13;19.30;99.90
64501;DHT22;50874;24.150;-110.320;2022-11-21T06:04:57;19.20;99.90
64501;DHT22;50874;24.150;-110.320;2022-11-21T06:07:24;19.20;99.90
64501;DHT22;50874;24.150;-110.320;2022-11-21T06:09:50;19.20;99.90
64501;DHT22;50874;24.150;-110.320;2022-11-21T06:12:17;19.10;99.90
64501;DHT22;50874;24.150;-110.320;2022-11-21T06:14:43;19.10;99.90
64501;DHT22;50874;24.150;-110.320;2022-11-21T06:17:11;18.90;99.90
64501;DHT22;50874;24.150;-110.320;2022-11-21T06:19:37;18.80;99.90
64501;DHT22;50874;24.150;-110.320;2022-11-21T06:22:03;18.60;99.90
64501;DHT22;50874;24.150;-110.320;2022-11-21T06:24:30;18.60;99.90
64501;DHT22;50874;24.150;-110.320;2022-11-21T06:26:56;18.60;99.90
64501;DHT22;50874;24.150;-110.320;2022-11-21T06:29:23;18.50;99.90
64501;DHT22;50874;24.150;-110.320;2022-11-21T06:31:49;18.40;99.90
64501;DHT22;50874;24.150;-110.320;2022-11-21T06:34:16;18.20;99.90
64501;DHT22;50874;24.150;-110.320;2022-11-21T06:36:42;18.20;99.90
64501;DHT22;50874;24.150;-110.320;2022-11-21T06:39:09;18.10;99.90
64501;DHT22;50874;24.150;-110.320;2022-11-21T06:41:36;18.10;99.90
64501;DHT22;50874;24.150;-110.320;2022-11-21T06:44:02;18.00;99.90
64501;DHT22;50874;24.150;-110.320;2022-11-21T06:46:29;17.90;99.90
64501;DHT22;50874;24.150;-110.320;2022-11-21T06:48:55;17.90;99.90
64501;DHT22;50874;24.150;-110.320;2022-11-21T06:51:22;17.90;99.90
64501;DHT22;50874;24.150;-110.320;2022-11-21T06:53:54;17.90;99.90
64501;DHT22;50874;24.150;-110.320;2022-11-21T06:56:22;17.80;99.90
64501;DHT22;50874;24.150;-110.320;2022-11-21T06:58:48;17.80;99.90
64501;DHT22;50874;24.150;-110.320;2022-11-21T07:01:15;17.80;99.90
64501;DHT22;50874;24.150;-110.320;2022-11-21T07:03:41;17.80;99.90
64501;DHT22;50874;24.150;-110.320;2022-11-21T07:06:08;17.80;99.90
64501;DHT22;50874;24.150;-110.320;2022-11-21T07:08:35;17.80;99.90
64501;DHT22;50874;24.150;-110.320;2022-11-21T07:11:07;17.80;99.90
64501;DHT22;50874;24.150;-110.320;2022-11-21T07:13:33;17.80;99.90
64501;DHT22;50874;24.150;-110.320;2022-11-21T07:16:07;17.70;99.90
64501;DHT22;50874;24.150;-110.320;2022-11-21T07:18:35;17.70;99.90
64501;DHT22;50874;24.150;-110.320;2022-11-21T07:21:03;17.70;99.90
64501;DHT22;50874;24.150;-110.320;2022-11-21T07:23:31;17.70;99.90
64501;DHT22;50874;24.150;-110.320;2022-11-21T07:26:02;17.70;99.90
64501;DHT22;50874;24.150;-110.320;2022-11-21T07:28:30;17.70;99.90
64501;DHT22;50874;24.150;-110.320;2022-11-21T07:30:57;17.80;99.90
64501;DHT22;50874;24.150;-110.320;2022-11-21T07:33:25;17.70;99.90
64501;DHT22;50874;24.150;-110.320;2022-11-21T07:35:51;17.70;99.90
64501;DHT22;50874;24.150;-110.320;2022-11-21T07:38:18;17.70;99.90
64501;DHT22;50874;24.150;-110.320;2022-11-21T07:40:44;17.70;99.90
64501;DHT22;50874;24.150;-110.320;2022-11-21T07:43:11;17.70;99.90
64501;DHT22;50874;24.150;-110.320;2022-11-21T07:45:37;17.80;99.90
64501;DHT22;50874;24.150;-110.320;2022-11-21T07:48:06;17.80;99.90
64501;DHT22;50874;24.150;-110.320;2022-11-21T07:50:33;17.80;99.90
64501;DHT22;50874;24.150;-110.320;2022-11-21T07:53:04;17.80;99.90
64501;DHT22;50874;24.150;-110.320;2022-11-21T07:55:31;17.80;99.90
64501;DHT22;50874;24.150;-110.320;2022-11-21T07:58:03;17.80;99.90
64501;DHT22;50874;24.150;-110.320;2022-11-21T08:00:30;17.80;99.90
64501;DHT22;50874;24.150;-110.320;2022-11-21T08:02:57;17.80;99.90
64501;DHT22;50874;24.150;-110.320;2022-11-21T08:05:23;17.80;99.90
64501;DHT22;50874;24.150;-110.320;2022-11-21T08:07:50;17.80;99.90
64501;DHT22;50874;24.150;-110.320;2022-11-21T08:10:17;17.80;99.90
64501;DHT22;50874;24.150;-110.320;2022-11-21T08:12:44;17.80;99.90
64501;DHT22;50874;24.150;-110.320;2022-11-21T08:15:11;17.80;99.90
64501;DHT22;50874;24.150;-110.320;2022-11-21T08:17:38;17.80;99.90
64501;DHT22;50874;24.150;-110.320;2022-11-21T08:20:08;17.80;99.90
64501;DHT22;50874;24.150;-110.320;2022-11-21T08:22:41;17.80;99.90
64501;DHT22;50874;24.150;-110.320;2022-11-21T08:25:09;17.80;99.90
64501;DHT22;50874;24.150;-110.320;2022-11-21T08:27:39;17.80;99.90
64501;DHT22;50874;24.150;-110.320;2022-11-21T08:30:10;17.70;99.90
64501;DHT22;50874;24.150;-110.320;2022-11-21T08:32:37;17.80;99.90
64501;DHT22;50874;24.150;-110.320;2022-11-21T08:35:04;17.70;99.90
64501;DHT22;50874;24.150;-110.320;2022-11-21T08:37:30;17.70;99.90
64501;DHT22;50874;24.150;-110.320;2022-11-21T08:39:57;17.70;99.90
64501;DHT22;50874;24.150;-110.320;2022-11-21T08:42:24;17.70;99.90
64501;DHT22;50874;24.150;-110.320;2022-11-21T08:44:51;17.70;99.90
64501;DHT22;50874;24.150;-110.320;2022-11-21T08:47:17;17.70;99.90
64501;DHT22;50874;24.150;-110.320;2022-11-21T08:49:45;17.70;99.90
64501;DHT22;50874;24.150;-110.320;2022-11-21T08:52:13;17.70;99.90
64501;DHT22;50874;24.150;-110.320;2022-11-21T08:54:39;17.70;99.90
64501;DHT22;50874;24.150;-110.320;2022-11-21T08:57:05;17.60;99.90
64501;DHT22;50874;24.150;-110.320;2022-11-21T08:59:32;17.60;99.90
64501;DHT22;50874;24.150;-110.320;2022-11-21T09:01:58;17.60;99.90
64501;DHT22;50874;24.150;-110.320;2022-11-21T09:04:25;17.60;99.90
64501;DHT22;50874;24.150;-110.320;2022-11-21T09:06:53;17.50;99.90
64501;DHT22;50874;24.150;-110.320;2022-11-21T09:09:20;17.50;99.90
64501;DHT22;50874;24.150;-110.320;2022-11-21T09:11:46;17.50;99.90
64501;DHT22;50874;24.150;-110.320;2022-11-21T09:14:12;17.50;99.90
64501;DHT22;50874;24.150;-110.320;2022-11-21T09:16:57;17.50;99.90
64501;DHT22;50874;24.150;-110.320;2022-11-21T09:19:42;17.50;99.90
64501;DHT22;50874;24.150;-110.320;2022-11-21T09:22:08;17.40;99.90
64501;DHT22;50874;24.150;-110.320;2022-11-21T09:24:34;17.40;99.90
64501;DHT22;50874;24.150;-110.320;2022-11-21T09:27:01;17.40;99.90
64501;DHT22;50874;24.150;-110.320;2022-11-21T09:29:28;17.40;99.90
64501;DHT22;50874;24.150;-110.320;2022-11-21T09:31:54;17.40;99.90
64501;DHT22;50874;24.150;-110.320;2022-11-21T09:34:21;17.30;99.90
64501;DHT22;50874;24.150;-110.320;2022-11-21T09:36:47;17.30;99.90
64501;DHT22;50874;24.150;-110.320;2022-11-21T09:39:13;17.30;99.90
64501;DHT22;50874;24.150;-110.320;2022-11-21T09:42:05;17.30;99.90
64501;DHT22;50874;24.150;-110.320;2022-11-21T09:45:14;17.30;99.90
64501;DHT22;50874;24.150;-110.320;2022-11-21T09:47:46;17.30;99.90
64501;DHT22;50874;24.150;-110.320;2022-11-21T09:52:43;17.30;99.90
64501;DHT22;50874;24.150;-110.320;2022-11-21T10:00:57;17.30;99.90
64501;DHT22;50874;24.150;-110.320;2022-11-21T10:03:26;17.30;99.90
64501;DHT22;50874;24.150;-110.320;2022-11-21T10:09:30;17.40;99.90
64501;DHT22;50874;24.150;-110.320;2022-11-21T10:15:18;17.40;99.90
64501;DHT22;50874;24.150;-110.320;2022-11-21T10:21:08;17.40;99.90
64501;DHT22;50874;24.150;-110.320;2022-11-21T10:24:02;17.40;99.90
64501;DHT22;50874;24.150;-110.320;2022-11-21T10:26:52;17.40;99.90
64501;DHT22;50874;24.150;-110.320;2022-11-21T10:29:34;17.40;99.90
64501;DHT22;50874;24.150;-110.320;2022-11-21T10:32:10;17.40;99.90
64501;DHT22;50874;24.150;-110.320;2022-11-21T10:34:39;17.50;99.90
64501;DHT22;50874;24.150;-110.320;2022-11-21T10:37:56;17.50;99.90
64501;DHT22;50874;24.150;-110.320;2022-11-21T10:42:59;17.60;99.90
64501;DHT22;50874;24.150;-110.320;2022-11-21T10:45:48;17.60;99.90
64501;DHT22;50874;24.150;-110.320;2022-11-21T10:48:15;17.50;99.90
64501;DHT22;50874;24.150;-110.320;2022-11-21T10:53:25;17.50;99.90
64501;DHT22;50874;24.150;-110.320;2022-11-21T10:56:28;17.50;99.90
64501;DHT22;50874;24.150;-110.320;2022-11-21T10:59:11;17.50;99.90
64501;DHT22;50874;24.150;-110.320;2022-11-21T11:01:43;17.50;99.90
64501;DHT22;50874;24.150;-110.320;2022-11-21T11:04:19;17.40;99.90
64501;DHT22;50874;24.150;-110.320;2022-11-21T11:06:46;17.40;99.90
64501;DHT22;50874;24.150;-110.320;2022-11-21T11:09:29;17.40;99.90
64501;DHT22;50874;24.150;-110.320;2022-11-21T11:12:30;17.40;99.90
64501;DHT22;50874;24.150;-110.320;2022-11-21T11:18:26;17.40;99.90
64501;DHT22;50874;24.150;-110.320;2022-11-21T11:20:52;17.30;99.90
64501;DHT22;50874;24.150;-110.320;2022-11-21T11:23:34;17.30;99.90
64501;DHT22;50874;24.150;-110.320;2022-11-21T11:26:00;17.30;99.90
64501;DHT22;50874;24.150;-110.320;2022-11-21T11:28:34;17.30;99.90
64501;DHT22;50874;24.150;-110.320;2022-11-21T11:31:00;17.30;99.90
64501;DHT22;50874;24.150;-110.320;2022-11-21T11:36:16;17.30;99.90
64501;DHT22;50874;24.150;-110.320;2022-11-21T11:38:52;17.30;99.90
64501;DHT22;50874;24.150;-110.320;2022-11-21T11:41:39;17.30;99.90
64501;DHT22;50874;24.150;-110.320;2022-11-21T11:48:08;17.40;99.90
64501;DHT22;50874;24.150;-110.320;2022-11-21T11:50:53;17.40;99.90
64501;DHT22;50874;24.150;-110.320;2022-11-21T11:53:25;17.40;99.90
64501;DHT22;50874;24.150;-110.320;2022-11-21T11:56:19;17.40;99.90
64501;DHT22;50874;24.150;-110.320;2022-11-21T12:01:41;17.30;99.90
64501;DHT22;50874;24.150;-110.320;2022-11-21T12:04:17;17.40;99.90
64501;DHT22;50874;24.150;-110.320;2022-11-21T12:06:59;17.40;99.90
64501;DHT22;50874;24.150;-110.320;2022-11-21T12:09:30;17.50;99.90
64501;DHT22;50874;24.150;-110.320;2022-11-21T12:12:12;17.40;99.90
64501;DHT22;50874;24.150;-110.320;2022-11-21T12:20:56;17.30;99.90
64501;DHT22;50874;24.150;-110.320;2022-11-21T12:23:27;17.30;99.90
64501;DHT22;50874;24.150;-110.320;2022-11-21T12:34:15;17.30;99.90
64501;DHT22;50874;24.150;-110.320;2022-11-21T12:42:05;17.20;99.90
64501;DHT22;50874;24.150;-110.320;2022-11-21T12:48:00;17.10;99.90
64501;DHT22;50874;24.150;-110.320;2022-11-21T12:54:07;17.00;99.90
64501;DHT22;50874;24.150;-110.320;2022-11-21T12:57:18;17.00;99.90
64501;DHT22;50874;24.150;-110.320;2022-11-21T13:05:11;16.90;99.90
64501;DHT22;50874;24.150;-110.320;2022-11-21T13:07:40;16.90;99.90
64501;DHT22;50874;24.150;-110.320;2022-11-21T13:10:13;16.90;99.90
64501;DHT22;50874;24.150;-110.320;2022-11-21T13:12:53;16.90;99.90
64501;DHT22;50874;24.150;-110.320;2022-11-21T13:15:30;16.90;99.90
64501;DHT22;50874;24.150;-110.320;2022-11-21T13:20:49;16.80;99.90
64501;DHT22;50874;24.150;-110.320;2022-11-21T13:23:38;16.80;99.90
64501;DHT22;50874;24.150;-110.320;2022-11-21T13:28:50;16.80;99.90
64501;DHT22;50874;24.150;-110.320;2022-11-21T13:31:29;16.80;99.90
64501;DHT22;50874;24.150;-110.320;2022-11-21T13:33:55;16.80;99.90
64501;DHT22;50874;24.150;-110.320;2022-11-21T13:47:10;16.80;99.90
64501;DHT22;50874;24.150;-110.320;2022-11-21T13:52:48;16.80;99.90
64501;DHT22;50874;24.150;-110.320;2022-11-21T14:04:23;16.90;99.90
64501;DHT22;50874;24.150;-110.320;2022-11-21T14:06:54;17.00;99.90
64501;DHT22;50874;24.150;-110.320;2022-11-21T14:09:34;17.00;99.90
64501;DHT22;50874;24.150;-110.320;2022-11-21T14:12:06;17.10;99.90
64501;DHT22;50874;24.150;-110.320;2022-11-21T14:15:14;17.10;99.90
64501;DHT22;50874;24.150;-110.320;2022-11-21T14:17:45;17.10;99.90
64501;DHT22;50874;24.150;-110.320;2022-11-21T14:20:31;17.20;99.90
64501;DHT22;50874;24.150;-110.320;2022-11-21T14:23:11;17.30;99.90
64501;DHT22;50874;24.150;-110.320;2022-11-21T14:28:32;17.50;99.90
64501;DHT22;50874;24.150;-110.320;2022-11-21T14:31:06;17.50;99.90
64501;DHT22;50874;24.150;-110.320;2022-11-21T14:33:34;17.70;99.90
64501;DHT22;50874;24.150;-110.320;2022-11-21T14:36:21;17.80;99.90
64501;DHT22;50874;24.150;-110.320;2022-11-21T14:46:26;18.20;99.90
64501;DHT22;50874;24.150;-110.320;2022-11-21T14:48:52;18.30;99.90
64501;DHT22;50874;24.150;-110.320;2022-11-21T14:51:23;18.50;99.90
64501;DHT22;50874;24.150;-110.320;2022-11-21T14:53:52;18.80;99.90
64501;DHT22;50874;24.150;-110.320;2022-11-21T14:56:31;19.20;99.90
64501;DHT22;50874;24.150;-110.320;2022-11-21T14:59:01;19.50;99.90
64501;DHT22;50874;24.150;-110.320;2022-11-21T15:01:32;19.80;99.90
64501;DHT22;50874;24.150;-110.320;2022-11-21T15:04:05;20.10;99.90
64501;DHT22;50874;24.150;-110.320;2022-11-21T15:06:41;20.50;99.90
64501;DHT22;50874;24.150;-110.320;2022-11-21T15:09:13;20.90;99.90
64501;DHT22;50874;24.150;-110.320;2022-11-21T15:11:48;21.20;99.90
64501;DHT22;50874;24.150;-110.320;2022-11-21T15:14:22;21.60;99.90
64501;DHT22;50874;24.150;-110.320;2022-11-21T15:16:51;22.00;99.90
64501;DHT22;50874;24.150;-110.320;2022-11-21T15:19:26;22.20;99.90
64501;DHT22;50874;24.150;-110.320;2022-11-21T15:21:55;22.80;99.90
64501;DHT22;50874;24.150;-110.320;2022-11-21T15:24:40;23.20;99.90
64501;DHT22;50874;24.150;-110.320;2022-11-21T15:27:43;23.70;99.90
64501;DHT22;50874;24.150;-110.320;2022-11-21T15:33:05;23.90;99.90
64501;DHT22;50874;24.150;-110.320;2022-11-21T15:35:48;24.20;99.90
64501;DHT22;50874;24.150;-110.320;2022-11-21T15:38:32;24.30;99.90
64501;DHT22;50874;24.150;-110.320;2022-11-21T15:43:48;24.90;99.90
64501;DHT22;50874;24.150;-110.320;2022-11-21T15:46:21;24.70;99.90
64501;DHT22;50874;24.150;-110.320;2022-11-21T15:48:55;24.80;99.90
64501;DHT22;50874;24.150;-110.320;2022-11-21T15:51:25;24.80;99.90
64501;DHT22;50874;24.150;-110.320;2022-11-21T15:53:52;25.20;99.90
64501;DHT22;50874;24.150;-110.320;2022-11-21T15:56:19;25.50;99.90
64501;DHT22;50874;24.150;-110.320;2022-11-21T15:58:47;25.80;99.90
64501;DHT22;50874;24.150;-110.320;2022-11-21T16:03:42;26.10;99.90
64501;DHT22;50874;24.150;-110.320;2022-11-21T16:06:09;26.30;99.90
64501;DHT22;50874;24.150;-110.320;2022-11-21T16:08:35;26.70;99.90
64501;DHT22;50874;24.150;-110.320;2022-11-21T16:11:02;26.60;99.90
64501;DHT22;50874;24.150;-110.320;2022-11-21T16:13:28;26.70;99.90
64501;DHT22;50874;24.150;-110.320;2022-11-21T16:15:55;26.70;99.90
64501;DHT22;50874;24.150;-110.320;2022-11-21T16:18:21;26.80;99.90
64501;DHT22;50874;24.150;-110.320;2022-11-21T16:20:47;27.00;99.90
64501;DHT22;50874;24.150;-110.320;2022-11-21T16:23:14;27.10;99.50
64501;DHT22;50874;24.150;-110.320;2022-11-21T16:25:55;26.90;99.60
64501;DHT22;50874;24.150;-110.320;2022-11-21T16:28:21;27.00;99.10
64501;DHT22;50874;24.150;-110.320;2022-11-21T16:30:48;27.00;99.60
64501;DHT22;50874;24.150;-110.320;2022-11-21T16:33:15;27.60;99.00
64501;DHT22;50874;24.150;-110.320;2022-11-21T16:35:41;27.70;98.00
64501;DHT22;50874;24.150;-110.320;2022-11-21T16:38:08;27.40;97.80
64501;DHT22;50874;24.150;-110.320;2022-11-21T16:40:36;27.60;98.00
64501;DHT22;50874;24.150;-110.320;2022-11-21T16:43:11;27.70;97.90
64501;DHT22;50874;24.150;-110.320;2022-11-21T16:45:38;27.60;97.70
64501;DHT22;50874;24.150;-110.320;2022-11-21T16:48:05;27.50;97.50
64501;DHT22;50874;24.150;-110.320;2022-11-21T16:50:32;27.20;98.10
64501;DHT22;50874;24.150;-110.320;2022-11-21T16:52:58;27.30;98.00
64501;DHT22;50874;24.150;-110.320;2022-11-21T16:55:25;26.50;98.80
64501;DHT22;50874;24.150;-110.320;2022-11-21T16:57:52;26.60;99.30
64501;DHT22;50874;24.150;-110.320;2022-11-21T17:00:23;27.20;98.70
64501;DHT22;50874;24.150;-110.320;2022-11-21T17:02:50;27.30;98.20
64501;DHT22;50874;24.150;-110.320;2022-11-21T17:05:16;27.80;97.90
64501;DHT22;50874;24.150;-110.320;2022-11-21T17:07:43;28.50;97.10
64501;DHT22;50874;24.150;-110.320;2022-11-21T17:10:10;28.00;96.70
64501;DHT22;50874;24.150;-110.320;2022-11-21T17:12:38;27.90;96.70
64501;DHT22;50874;24.150;-110.320;2022-11-21T17:15:07;28.40;96.70
64501;DHT22;50874;24.150;-110.320;2022-11-21T17:17:35;29.10;96.10